Time;durP1;ratioP1;P1;durP2;ratioP2;P2;SDS_P1;SDS_P2;PMS_P1;PMS_P2;Temp;Humidity;BMP_temperature;BMP_pressure;BME280_temperature;BME280_humidity;BME280_pressure;Samples;Min_cycle;Max_cycle;Signal;HPM_P1;HPM_P2
2023/12/25 00:01:58;;;;;;;1.48;0.70;;;8.90;99.90;;;;;;4958265;28;20842;-87
2023/12/25 00:04:23;;;;;;;0.95;0.77;;;8.90;99.90;;;;;;4956219;28;20034;-87
2023/12/25 00:06:49;;;;;;;0.63;0.57;;;8.90;99.90;;;;;;4956443;28;20468;-88
2023/12/25 00:09:18;;;;;;;0.82;0.80;;;8.90;99.90;;;;;;4960177;28;20389;-87
2023/12/25 00:11:43;;;;;;;0.80;0.80;;;8.90;99.90;;;;;;4956419;28;20023;-88
2023/12/25 00:14:09;;;;;;;1.17;0.90;;;8.90;99.90;;;;;;4960410;28;20543;-87
2023/12/25 00:16:34;;;;;;;1.65;1.05;;;8.90;99.90;;;;;;4953692;28;20109;-87
2023/12/25 00:19:00;;;;;;;0.80;0.70;;;8.90;99.90;;;;;;4957882;28;20042;-87
2023/12/25 00:21:26;;;;;;;0.70;0.70;;;8.90;99.90;;;;;;4972601;28;20031;-86
2023/12/25 00:23:52;;;;;;;1.17;0.90;;;8.90;99.90;;;;;;4964071;28;20027;-88
2023/12/25 00:26:18;;;;;;;1.10;0.80;;;8.90;99.90;;;;;;4971230;28;20131;-87
2023/12/25 00:28:43;;;;;;;0.68;0.68;;;8.90;99.90;;;;;;4957913;28;20412;-87
2023/12/25 00:31:09;;;;;;;0.80;0.80;;;8.90;99.90;;;;;;4956543;28;20019;-87
2023/12/25 00:33:34;;;;;;;2.88;0.90;;;8.90;99.90;;;;;;4963702;28;20023;-86
2023/12/25 00:36:00;;;;;;;1.02;0.88;;;8.90;99.90;;;;;;4962482;28;20014;-88
2023/12/25 00:38:25;;;;;;;0.90;0.88;;;8.90;99.90;;;;;;4972569;28;20022;-86
2023/12/25 00:40:51;;;;;;;1.15;1.00;;;8.90;99.90;;;;;;4973052;28;20018;-87
2023/12/25 00:43:16;;;;;;;1.67;0.98;;;8.90;99.90;;;;;;4972859;28;20031;-87
2023/12/25 00:45:42;;;;;;;0.88;0.82;;;8.90;99.90;;;;;;4958139;28;20046;-88
2023/12/25 00:48:07;;;;;;;0.88;0.80;;;8.90;99.90;;;;;;4980427;28;20034;-87
2023/12/25 00:50:33;;;;;;;0.85;0.85;;;8.90;99.90;;;;;;4958983;28;20029;-87
2023/12/25 00:52:58;;;;;;;2.92;1.02;;;8.90;99.90;;;;;;4955359;28;20074;-87
2023/12/25 00:55:24;;;;;;;0.70;0.70;;;8.90;99.90;;;;;;4960173;28;20070;-87
2023/12/25 00:57:49;;;;;;;0.85;0.85;;;8.90;99.90;;;;;;4958643;28;20031;-87
2023/12/25 01:00:15;;;;;;;2.65;1.00;;;8.90;99.90;;;;;;4963079;28;20027;-87
2023/12/25 01:02:41;;;;;;;0.70;0.70;;;8.90;99.90;;;;;;4962001;28;20489;-88
2023/12/25 01:05:07;;;;;;;1.60;0.80;;;8.90;99.90;;;;;;4969653;28;20049;-86
2023/12/25 01:07:32;;;;;;;1.35;0.85;;;8.90;99.90;;;;;;4956670;28;20023;-87
2023/12/25 01:09:58;;;;;;;0.90;0.90;;;8.90;99.90;;;;;;4972360;28;20026;-88
2023/12/25 01:12:23;;;;;;;1.13;0.70;;;8.90;99.90;;;;;;4952245;28;20030;-88
2023/12/25 01:14:49;;;;;;;1.15;0.80;;;8.90;99.90;;;;;;4961367;28;20023;-86
2023/12/25 01:17:15;;;;;;;1.27;0.70;;;8.90;99.90;;;;;;4971873;28;20548;-86
2023/12/25 01:19:40;;;;;;;1.13;0.60;;;8.90;99.90;;;;;;4972418;28;20101;-88
2023/12/25 01:22:06;;;;;;;0.80;0.80;;;8.90;99.90;;;;;;4971838;28;20042;-87
2023/12/25 01:24:31;;;;;;;1.85;0.70;;;8.90;99.90;;;;;;4955716;28;20425;-87
2023/12/25 01:26:57;;;;;;;2.15;0.70;;;8.90;99.90;;;;;;4964464;28;20662;-87
2023/12/25 01:29:22;;;;;;;0.73;0.65;;;8.90;99.90;;;;;;4963082;28;20078;-88
2023/12/25 01:31:48;;;;;;;0.80;0.80;;;8.90;99.90;;;;;;4971221;28;20077;-86
2023/12/25 01:34:13;;;;;;;1.50;0.90;;;8.90;99.90;;;;;;4954479;28;20022;-87
2023/12/25 01:36:40;;;;;;;1.13;0.90;;;8.90;99.90;;;;;;4954803;28;20019;-88
2023/12/25 01:39:05;;;;;;;1.50;0.93;;;8.90;99.90;;;;;;4963031;28;20106;-88
2023/12/25 01:41:31;;;;;;;1.02;0.65;;;8.90;99.90;;;;;;4971969;28;20110;-87
2023/12/25 01:43:56;;;;;;;0.80;0.80;;;8.90;99.90;;;;;;4966856;28;20023;-87
2023/12/25 01:46:23;;;;;;;2.95;0.70;;;8.90;99.90;;;;;;4958344;28;20034;-88
2023/12/25 01:48:51;;;;;;;0.70;0.70;;;8.90;99.90;;;;;;4954576;28;20015;-87
2023/12/25 01:51:19;;;;;;;1.05;1.00;;;8.90;99.90;;;;;;4962668;28;20019;-87
2023/12/25 01:53:45;;;;;;;2.80;0.90;;;8.90;99.90;;;;;;4971825;28;20027;-87
2023/12/25 01:56:10;;;;;;;1.70;0.75;;;8.90;99.90;;;;;;4951780;28;20027;-86
2023/12/25 01:58:36;;;;;;;1.85;0.80;;;8.90;99.90;;;;;;4971734;28;20110;-88
2023/12/25 02:01:02;;;;;;;0.90;0.90;;;8.90;99.90;;;;;;4951573;28;20019;-89
2023/12/25 02:03:28;;;;;;;1.42;0.70;;;8.90;99.90;;;;;;4954965;28;20559;-87
2023/12/25 02:05:53;;;;;;;1.80;0.70;;;8.90;99.90;;;;;;4952903;28;20049;-88
2023/12/25 02:08:19;;;;;;;0.68;0.68;;;8.90;99.90;;;;;;4954687;28;20023;-88
2023/12/25 02:10:45;;;;;;;2.50;0.98;;;8.90;99.90;;;;;;4956826;28;20085;-87
2023/12/25 02:13:10;;;;;;;1.23;0.80;;;8.90;99.90;;;;;;4958639;28;20011;-88
2023/12/25 02:15:36;;;;;;;1.83;0.70;;;8.90;99.90;;;;;;4954485;28;20027;-88
2023/12/25 02:18:02;;;;;;;1.02;0.70;;;8.90;99.90;;;;;;4969262;28;20396;-87
2023/12/25 02:20:28;;;;;;;0.82;0.68;;;8.90;99.90;;;;;;4954011;28;20027;-88
2023/12/25 02:22:55;;;;;;;1.13;0.70;;;8.80;99.90;;;;;;4953693;28;20071;-88
2023/12/25 02:25:32;;;;;;;0.80;0.80;;;8.90;99.90;;;;;;4970752;28;20030;-87
2023/12/25 02:27:57;;;;;;;0.60;0.60;;;8.90;99.90;;;;;;4962657;28;20022;-86
2023/12/25 02:30:24;;;;;;;4.13;0.75;;;8.90;99.90;;;;;;4955822;28;20444;-88
2023/12/25 02:32:49;;;;;;;0.80;0.80;;;8.90;99.90;;;;;;4971172;28;20050;-86
2023/12/25 02:35:15;;;;;;;0.73;0.73;;;8.90;99.90;;;;;;4956696;28;20019;-87
2023/12/25 02:37:40;;;;;;;0.50;0.50;;;8.90;99.90;;;;;;4955612;28;20102;-88
2023/12/25 02:40:07;;;;;;;2.13;1.08;;;8.90;99.90;;;;;;4975087;28;20397;-87
2023/12/25 02:42:32;;;;;;;0.70;0.70;;;8.90;99.90;;;;;;4974778;28;20031;-86
2023/12/25 02:44:58;;;;;;;2.60;0.70;;;8.80;99.90;;;;;;4975142;28;20077;-88
2023/12/25 02:47:23;;;;;;;0.70;0.70;;;8.90;99.90;;;;;;4981083;28;20459;-88
2023/12/25 02:49:49;;;;;;;0.93;0.73;;;8.90;99.90;;;;;;4960384;28;20461;-87
2023/12/25 02:52:14;;;;;;;0.57;0.57;;;8.90;99.90;;;;;;4973548;28;20536;-89
2023/12/25 02:54:40;;;;;;;1.73;0.70;;;8.90;99.90;;;;;;4975982;28;20019;-89
2023/12/25 02:57:05;;;;;;;1.52;0.57;;;8.80;99.90;;;;;;4976536;28;20022;-89
2023/12/25 02:59:31;;;;;;;0.60;0.60;;;8.90;99.90;;;;;;4976380;28;20380;-89
2023/12/25 03:01:56;;;;;;;0.52;0.52;;;8.80;99.90;;;;;;4963903;28;20072;-88
2023/12/25 03:04:22;;;;;;;0.60;0.60;;;8.90;99.90;;;;;;4963143;28;20030;-87
2023/12/25 03:06:47;;;;;;;0.60;0.60;;;8.80;99.90;;;;;;4974773;28;20018;-89
2023/12/25 03:09:13;;;;;;;0.95;0.52;;;8.90;99.90;;;;;;4957092;28;20041;-87
2023/12/25 03:11:39;;;;;;;0.60;0.60;;;8.90;99.90;;;;;;4954006;28;20022;-88
2023/12/25 03:14:04;;;;;;;1.85;0.77;;;8.90;99.90;;;;;;4961293;28;20114;-87
2023/12/25 03:16:30;;;;;;;0.95;0.60;;;8.90;99.90;;;;;;4958134;28;20130;-87
2023/12/25 03:18:55;;;;;;;0.65;0.65;;;8.90;99.90;;;;;;4959963;28;20482;-86
2023/12/25 03:21:21;;;;;;;0.73;0.70;;;8.80;99.90;;;;;;4958336;28;20070;-87
2023/12/25 03:23:47;;;;;;;0.73;0.73;;;8.80;99.90;;;;;;4957547;28;20019;-87
2023/12/25 03:26:12;;;;;;;0.70;0.70;;;8.90;99.90;;;;;;4973354;28;20057;-87
2023/12/25 03:28:38;;;;;;;1.13;0.95;;;8.80;99.90;;;;;;4964744;28;20625;-88
2023/12/25 03:31:04;;;;;;;1.10;0.80;;;8.90;99.90;;;;;;4956401;28;20019;-86
2023/12/25 03:33:30;;;;;;;0.60;0.60;;;8.90;99.90;;;;;;4954257;28;20119;-88
2023/12/25 03:35:55;;;;;;;0.73;0.73;;;8.90;99.90;;;;;;4955848;28;20019;-88
2023/12/25 03:38:21;;;;;;;2.25;0.70;;;8.90;99.90;;;;;;4961758;28;20030;-88
2023/12/25 03:40:47;;;;;;;1.60;0.77;;;8.80;99.90;;;;;;4957684;28;20014;-88
2023/12/25 03:43:12;;;;;;;1.75;0.70;;;8.80;99.90;;;;;;4959118;28;20030;-87
2023/12/25 03:45:38;;;;;;;1.25;0.77;;;8.80;99.90;;;;;;4964203;28;20065;-87
2023/12/25 03:48:04;;;;;;;0.93;0.73;;;8.90;99.90;;;;;;4973975;28;20452;-88
2023/12/25 03:50:29;;;;;;;1.45;0.80;;;8.80;99.90;;;;;;4955659;28;20069;-86
2023/12/25 03:52:55;;;;;;;1.40;0.80;;;8.80;99.90;;;;;;4961175;28;20077;-88
2023/12/25 03:55:20;;;;;;;1.30;0.80;;;8.80;99.90;;;;;;4956323;28;20027;-88
2023/12/25 03:57:46;;;;;;;0.60;0.60;;;8.80;99.90;;;;;;4957471;28;20042;-86
2023/12/25 04:00:12;;;;;;;1.23;0.80;;;8.80;99.90;;;;;;4956428;28;20027;-88
2023/12/25 04:02:38;;;;;;;0.60;0.60;;;8.80;99.90;;;;;;4967287;28;20066;-86
2023/12/25 04:05:04;;;;;;;0.73;0.70;;;8.80;99.90;;;;;;4954077;28;20027;-88
2023/12/25 04:07:29;;;;;;;3.13;0.80;;;8.90;99.90;;;;;;4957305;28;20027;-88
2023/12/25 04:09:55;;;;;;;0.60;0.60;;;8.80;99.90;;;;;;4959525;28;20025;-87
2023/12/25 04:12:21;;;;;;;0.50;0.50;;;8.80;99.90;;;;;;4956269;28;20031;-87
2023/12/25 04:14:46;;;;;;;2.88;0.80;;;8.90;99.90;;;;;;4973515;28;20022;-86
2023/12/25 04:17:12;;;;;;;0.60;0.60;;;8.90;99.90;;;;;;4972434;28;20490;-87
2023/12/25 04:19:38;;;;;;;0.68;0.68;;;8.80;99.90;;;;;;4960934;28;20405;-87
2023/12/25 04:22:03;;;;;;;0.90;0.60;;;8.80;99.90;;;;;;4958418;28;20477;-88
2023/12/25 04:24:29;;;;;;;0.60;0.60;;;8.80;99.90;;;;;;4960662;28;20031;-87
2023/12/25 04:26:54;;;;;;;0.65;0.65;;;8.80;99.90;;;;;;4964129;28;20027;-89
2023/12/25 04:29:20;;;;;;;4.15;0.98;;;8.90;99.90;;;;;;4973581;28;20038;-86
2023/12/25 04:31:45;;;;;;;0.60;0.60;;;8.80;99.90;;;;;;4957667;28;20042;-87
2023/12/25 04:34:11;;;;;;;0.82;0.70;;;8.80;99.90;;;;;;4969042;28;20085;-87
2023/12/25 04:36:36;;;;;;;0.90;0.73;;;8.80;99.90;;;;;;4972131;28;20030;-87
2023/12/25 04:39:02;;;;;;;0.75;0.70;;;8.80;99.90;;;;;;4956266;28;20027;-87
2023/12/25 04:41:28;;;;;;;0.80;0.80;;;8.80;99.90;;;;;;4955432;28;20031;-88
2023/12/25 04:43:54;;;;;;;0.93;0.80;;;8.80;99.90;;;;;;4973238;28;20018;-88
2023/12/25 04:46:20;;;;;;;1.25;0.75;;;8.80;99.90;;;;;;4958313;28;20037;-87
2023/12/25 04:48:46;;;;;;;1.60;0.70;;;8.90;99.90;;;;;;4948786;28;20026;-86
2023/12/25 04:51:11;;;;;;;0.63;0.63;;;8.80;99.90;;;;;;4955268;28;20105;-87
2023/12/25 04:53:37;;;;;;;0.98;0.80;;;8.80;99.90;;;;;;4972571;28;20030;-86
2023/12/25 04:56:03;;;;;;;1.02;0.70;;;8.80;99.90;;;;;;4957175;28;20030;-88
2023/12/25 04:58:29;;;;;;;0.70;0.70;;;8.80;99.90;;;;;;4955252;28;20034;-88
2023/12/25 05:00:54;;;;;;;0.60;0.60;;;8.80;99.90;;;;;;4956237;28;20019;-87
2023/12/25 05:03:21;;;;;;;1.27;0.93;;;8.80;99.90;;;;;;4960700;28;20031;-88
2023/12/25 05:05:47;;;;;;;0.70;0.65;;;8.80;99.90;;;;;;4953136;28;20057;-90
2023/12/25 05:08:13;;;;;;;1.40;0.90;;;8.80;99.90;;;;;;4972621;28;20074;-87
2023/12/25 05:10:39;;;;;;;1.55;0.70;;;8.80;99.90;;;;;;4972022;28;20196;-88
2023/12/25 05:13:04;;;;;;;0.85;0.70;;;8.80;99.90;;;;;;4954209;28;20026;-87
2023/12/25 05:15:30;;;;;;;1.40;0.93;;;8.80;99.90;;;;;;4960946;28;20094;-87
2023/12/25 05:17:56;;;;;;;0.80;0.80;;;8.80;99.90;;;;;;4972409;28;20022;-86
2023/12/25 05:20:21;;;;;;;1.75;0.70;;;8.80;99.90;;;;;;4972222;28;20030;-87
2023/12/25 05:22:47;;;;;;;0.80;0.80;;;8.80;99.90;;;;;;4972041;28;20484;-87
2023/12/25 05:25:12;;;;;;;0.90;0.80;;;8.80;99.90;;;;;;4955051;28;20022;-87
2023/12/25 05:27:38;;;;;;;1.88;1.00;;;8.80;99.90;;;;;;4952655;28;20058;-88
2023/12/25 05:30:04;;;;;;;0.77;0.77;;;8.80;99.90;;;;;;4971226;28;20052;-87
2023/12/25 05:32:30;;;;;;;0.75;0.75;;;8.80;99.90;;;;;;4958605;28;20051;-88
2023/12/25 05:34:56;;;;;;;1.38;0.88;;;8.80;99.90;;;;;;4957042;28;20477;-88
2023/12/25 05:37:22;;;;;;;1.17;0.70;;;8.80;99.90;;;;;;4955857;28;20027;-88
2023/12/25 05:39:47;;;;;;;2.00;0.90;;;8.80;99.90;;;;;;4972131;28;20069;-89
2023/12/25 05:42:13;;;;;;;0.75;0.70;;;8.80;99.90;;;;;;4967755;28;20039;-87
2023/12/25 05:44:38;;;;;;;0.75;0.75;;;8.80;99.90;;;;;;4956645;28;20045;-88
2023/12/25 05:47:04;;;;;;;1.85;1.00;;;8.80;99.90;;;;;;4960943;28;20034;-86
2023/12/25 05:49:30;;;;;;;1.15;0.80;;;8.80;99.90;;;;;;4968154;28;20024;-87
2023/12/25 05:51:55;;;;;;;0.80;0.73;;;8.80;99.90;;;;;;4972038;28;20089;-86
2023/12/25 05:54:21;;;;;;;0.90;0.63;;;8.80;99.90;;;;;;4963797;28;20081;-87
2023/12/25 05:56:46;;;;;;;0.70;0.70;;;8.80;99.90;;;;;;4962034;28;20125;-87
2023/12/25 05:59:12;;;;;;;0.60;0.60;;;8.80;99.90;;;;;;4960613;28;20113;-89
2023/12/25 06:01:37;;;;;;;3.17;1.00;;;8.80;99.90;;;;;;4956313;28;20081;-88
2023/12/25 06:04:03;;;;;;;1.20;0.85;;;8.80;99.90;;;;;;4956714;28;20058;-86
2023/12/25 06:06:29;;;;;;;1.95;0.75;;;8.80;99.90;;;;;;4972280;28;20537;-90
2023/12/25 06:08:55;;;;;;;0.98;0.77;;;8.80;99.90;;;;;;4971044;28;20030;-84
2023/12/25 06:11:21;;;;;;;1.10;0.90;;;8.80;99.90;;;;;;4954277;28;20085;-89
2023/12/25 06:13:46;;;;;;;1.38;0.80;;;8.80;99.90;;;;;;4955802;28;20113;-85
2023/12/25 06:16:12;;;;;;;0.60;0.60;;;8.80;99.90;;;;;;4956975;28;20170;-86
2023/12/25 06:18:38;;;;;;;1.25;0.82;;;8.80;99.90;;;;;;4954406;28;20029;-86
2023/12/25 06:21:03;;;;;;;1.67;0.75;;;8.80;99.90;;;;;;4963185;28;20048;-87
2023/12/25 06:23:29;;;;;;;1.42;0.80;;;8.80;99.90;;;;;;4968797;28;20489;-85
2023/12/25 06:25:55;;;;;;;2.33;0.80;;;8.80;99.90;;;;;;4956972;28;20489;-84
2023/12/25 06:28:20;;;;;;;1.23;0.77;;;8.80;99.90;;;;;;4973436;28;20019;-85
2023/12/25 06:30:46;;;;;;;3.03;1.00;;;8.80;99.90;;;;;;4971272;28;20057;-84
2023/12/25 06:33:11;;;;;;;1.20;0.95;;;8.80;99.90;;;;;;4957832;28;20097;-87
2023/12/25 06:35:37;;;;;;;0.75;0.70;;;8.80;99.90;;;;;;4951552;28;20034;-85
2023/12/25 06:38:02;;;;;;;0.82;0.80;;;8.80;99.90;;;;;;4955547;28;20038;-84
2023/12/25 06:40:28;;;;;;;1.08;0.77;;;8.80;99.90;;;;;;4952690;28;20086;-84
2023/12/25 06:42:53;;;;;;;0.80;0.70;;;8.80;99.90;;;;;;4957668;28;20015;-84
2023/12/25 06:45:19;;;;;;;1.00;0.90;;;8.80;99.90;;;;;;4954312;28;20023;-85
2023/12/25 06:47:44;;;;;;;0.95;0.75;;;8.80;99.90;;;;;;4954447;28;20110;-84
2023/12/25 06:50:11;;;;;;;1.15;0.70;;;8.80;99.90;;;;;;4956146;28;20030;-84
2023/12/25 06:52:40;;;;;;;1.25;0.77;;;8.80;99.90;;;;;;4955322;28;20041;-84
2023/12/25 06:55:06;;;;;;;1.42;1.02;;;8.80;99.90;;;;;;4971437;28;20448;-85
2023/12/25 06:57:32;;;;;;;1.75;0.80;;;8.80;99.90;;;;;;4956420;28;20118;-85
2023/12/25 06:59:57;;;;;;;1.02;0.80;;;8.80;99.90;;;;;;4954643;28;20130;-84
2023/12/25 07:02:23;;;;;;;1.52;0.98;;;8.80;99.90;;;;;;4973157;28;20031;-86
2023/12/25 07:04:48;;;;;;;1.30;1.00;;;8.80;99.90;;;;;;4968943;28;20031;-87
2023/12/25 07:07:14;;;;;;;1.70;1.48;;;8.80;99.90;;;;;;4959158;28;20027;-86
2023/12/25 07:09:42;;;;;;;2.08;1.80;;;8.80;99.90;;;;;;4955755;28;20444;-86
2023/12/25 07:12:08;;;;;;;3.33;1.88;;;8.80;99.90;;;;;;4955453;28;20054;-87
2023/12/25 07:14:33;;;;;;;3.35;1.80;;;8.80;99.90;;;;;;4956942;28;20058;-85
2023/12/25 07:17:00;;;;;;;2.75;1.40;;;8.80;99.90;;;;;;4955251;28;20023;-84
2023/12/25 07:19:25;;;;;;;2.95;1.65;;;8.80;99.90;;;;;;4955787;28;20456;-84
2023/12/25 07:21:51;;;;;;;2.67;1.50;;;8.80;99.90;;;;;;4970611;28;20039;-87
2023/12/25 07:24:16;;;;;;;2.35;1.50;;;8.80;99.90;;;;;;4950762;28;20470;-85
2023/12/25 07:26:42;;;;;;;1.80;1.50;;;8.80;99.90;;;;;;4956494;28;20416;-86
2023/12/25 07:29:07;;;;;;;1.60;1.10;;;8.80;99.90;;;;;;4955251;28;20023;-84
2023/12/25 07:31:33;;;;;;;1.85;1.15;;;8.80;99.90;;;;;;4954654;28;20019;-85
2023/12/25 07:33:58;;;;;;;2.97;1.65;;;8.80;99.90;;;;;;4956071;28;20564;-85
2023/12/25 07:36:24;;;;;;;1.17;1.10;;;8.80;99.90;;;;;;4953517;28;20033;-84
2023/12/25 07:38:50;;;;;;;2.00;1.30;;;8.80;99.90;;;;;;4956743;28;20031;-84
2023/12/25 07:41:15;;;;;;;3.22;1.08;;;8.90;99.90;;;;;;4955017;28;20069;-85
2023/12/25 07:43:41;;;;;;;1.10;1.00;;;8.80;99.90;;;;;;4970948;28;20397;-84
2023/12/25 07:46:08;;;;;;;2.83;1.38;;;8.80;99.90;;;;;;4954782;28;20026;-86
2023/12/25 07:48:35;;;;;;;1.70;1.20;;;8.80;99.90;;;;;;4970161;28;20027;-85
2023/12/25 07:51:00;;;;;;;1.73;1.17;;;8.80;99.90;;;;;;4956310;28;20093;-84
2023/12/25 07:53:26;;;;;;;2.08;1.20;;;8.90;99.90;;;;;;4954666;28;20030;-85
2023/12/25 07:55:51;;;;;;;1.27;1.17;;;8.90;99.90;;;;;;4959931;28;20063;-84
2023/12/25 07:58:17;;;;;;;3.63;1.23;;;8.90;99.90;;;;;;4971923;28;20030;-85
2023/12/25 08:00:43;;;;;;;1.75;1.20;;;8.90;99.90;;;;;;4968644;28;20043;-84
2023/12/25 08:03:10;;;;;;;1.30;1.20;;;8.90;99.90;;;;;;4956209;28;20109;-86
2023/12/25 08:05:36;;;;;;;2.17;1.15;;;8.90;99.90;;;;;;4951931;28;20083;-85
2023/12/25 08:08:02;;;;;;;1.33;1.05;;;8.90;99.90;;;;;;4955642;28;20543;-85
2023/12/25 08:10:28;;;;;;;1.25;1.15;;;8.90;99.90;;;;;;4953950;28;20034;-85
2023/12/25 08:12:54;;;;;;;1.40;1.05;;;8.90;99.90;;;;;;4953944;28;20118;-85
2023/12/25 08:15:20;;;;;;;5.35;1.30;;;8.90;99.90;;;;;;4968321;28;20034;-85
2023/12/25 08:17:45;;;;;;;1.17;1.08;;;8.90;99.90;;;;;;4971110;28;20034;-86
2023/12/25 08:20:11;;;;;;;1.42;1.00;;;8.90;99.90;;;;;;4954872;28;20031;-88
2023/12/25 08:22:37;;;;;;;1.23;1.13;;;8.90;99.90;;;;;;4952560;28;20034;-85
2023/12/25 08:25:03;;;;;;;0.98;0.75;;;8.90;99.90;;;;;;4970829;28;20027;-86
2023/12/25 08:27:29;;;;;;;1.27;0.90;;;9.00;99.90;;;;;;4971839;28;20773;-87
2023/12/25 08:29:55;;;;;;;0.85;0.85;;;9.00;99.90;;;;;;4954181;28;20026;-86
2023/12/25 08:32:20;;;;;;;1.55;1.00;;;8.90;99.90;;;;;;4953867;28;20094;-85
2023/12/25 08:34:46;;;;;;;0.80;0.80;;;9.00;99.90;;;;;;4954343;28;20027;-87
2023/12/25 08:37:12;;;;;;;0.85;0.77;;;9.00;99.90;;;;;;4970956;28;20061;-86
2023/12/25 08:39:37;;;;;;;0.95;0.82;;;9.00;99.90;;;;;;4954776;28;20025;-87
2023/12/25 08:42:04;;;;;;;1.85;0.90;;;9.00;99.90;;;;;;4955895;28;20038;-88
2023/12/25 08:44:32;;;;;;;0.80;0.80;;;9.00;99.90;;;;;;4968035;28;20082;-85
2023/12/25 08:46:58;;;;;;;1.27;1.10;;;9.00;99.90;;;;;;4954773;28;20076;-87
2023/12/25 08:49:23;;;;;;;1.75;0.80;;;9.00;99.90;;;;;;4971612;28;20346;-86
2023/12/25 08:51:49;;;;;;;3.08;1.00;;;9.00;99.90;;;;;;4965874;28;20038;-86
2023/12/25 08:54:15;;;;;;;1.00;0.80;;;9.10;99.90;;;;;;4972821;28;20114;-87
2023/12/25 08:56:40;;;;;;;1.48;1.05;;;9.10;99.90;;;;;;4958001;28;20061;-88
2023/12/25 08:59:06;;;;;;;0.95;0.82;;;9.10;99.90;;;;;;4972055;28;20023;-88
2023/12/25 09:01:32;;;;;;;1.25;0.90;;;9.10;99.90;;;;;;4957546;28;20034;-86
2023/12/25 09:03:58;;;;;;;1.60;0.90;;;9.20;99.90;;;;;;4955611;28;20058;-86
2023/12/25 09:06:24;;;;;;;1.15;0.90;;;9.20;99.90;;;;;;4971119;28;20061;-86
2023/12/25 09:08:51;;;;;;;2.80;1.00;;;9.20;99.90;;;;;;4958108;28;20117;-86
2023/12/25 09:11:17;;;;;;;1.10;0.95;;;9.20;99.90;;;;;;4959389;28;20027;-86
2023/12/25 09:13:43;;;;;;;0.90;0.90;;;9.20;99.90;;;;;;4957927;28;20030;-87
2023/12/25 09:16:09;;;;;;;2.67;1.02;;;9.20;99.90;;;;;;4970506;28;20558;-86
2023/12/25 09:18:34;;;;;;;0.70;0.70;;;9.20;99.90;;;;;;4956426;28;20027;-87
2023/12/25 09:21:00;;;;;;;0.93;0.88;;;9.10;99.90;;;;;;4970476;28;20113;-85
2023/12/25 09:23:26;;;;;;;0.75;0.75;;;9.10;99.90;;;;;;4954399;28;20026;-87
2023/12/25 09:25:52;;;;;;;0.80;0.80;;;9.10;99.90;;;;;;4970127;28;20031;-88
2023/12/25 09:28:17;;;;;;;0.82;0.82;;;9.10;99.90;;;;;;4957664;28;20031;-89
2023/12/25 09:30:44;;;;;;;1.10;0.85;;;9.10;99.90;;;;;;4954081;28;20423;-87
2023/12/25 09:33:13;;;;;;;1.00;0.90;;;9.10;99.90;;;;;;4955075;28;20068;-89
2023/12/25 09:35:38;;;;;;;1.55;0.82;;;9.10;99.90;;;;;;4953716;28;20655;-87
2023/12/25 09:38:04;;;;;;;2.33;1.00;;;9.10;99.90;;;;;;4970410;28;20033;-87
2023/12/25 09:40:31;;;;;;;1.30;0.90;;;9.10;99.90;;;;;;4953467;28;20456;-86
2023/12/25 09:43:01;;;;;;;4.55;1.50;;;9.20;99.90;;;;;;4953483;28;20485;-88
2023/12/25 09:45:32;;;;;;;;;;;9.10;99.90;;;;;;4954844;28;20077;-87
2023/12/25 09:47:57;;;;;;;0.93;0.73;;;9.20;99.90;;;;;;4952398;28;19916;-87
2023/12/25 09:50:23;;;;;;;3.28;0.93;;;9.20;99.90;;;;;;4955575;28;20019;-88
2023/12/25 09:52:48;;;;;;;1.38;0.90;;;9.20;99.90;;;;;;4953913;28;20027;-85
2023/12/25 09:55:14;;;;;;;2.05;1.20;;;9.20;99.90;;;;;;4955280;28;20034;-90
2023/12/25 09:57:41;;;;;;;1.85;0.93;;;9.30;99.90;;;;;;4956726;28;20485;-90
2023/12/25 10:00:08;;;;;;;1.02;0.90;;;9.30;99.90;;;;;;4955975;28;20020;-85
2023/12/25 10:02:37;;;;;;;0.95;0.75;;;9.30;99.90;;;;;;4952401;28;20621;-86
2023/12/25 10:05:05;;;;;;;1.08;0.98;;;9.30;99.90;;;;;;4969413;28;20559;-84
2023/12/25 10:07:30;;;;;;;1.20;1.10;;;9.30;99.90;;;;;;4952924;28;20019;-85
2023/12/25 10:09:58;;;;;;;0.93;0.85;;;9.30;99.90;;;;;;4953292;28;20073;-89
2023/12/25 10:12:24;;;;;;;1.33;1.10;;;9.30;99.90;;;;;;4952808;28;20027;-86
2023/12/25 10:14:50;;;;;;;1.38;1.00;;;9.30;99.90;;;;;;4953800;28;20022;-88
2023/12/25 10:17:16;;;;;;;1.23;1.13;;;9.30;99.90;;;;;;4954982;28;20189;-90
2023/12/25 10:19:54;;;;;;;4.95;1.10;;;9.30;99.90;;;;;;4955159;28;20081;-90
2023/12/25 10:22:40;;;;;;;2.30;1.17;;;9.40;99.90;;;;;;4953819;28;20493;-89
2023/12/25 10:25:08;;;;;;;1.83;1.20;;;9.40;99.90;;;;;;4955319;28;20038;-89
2023/12/25 10:27:37;;;;;;;1.40;1.00;;;9.40;99.90;;;;;;4958719;28;20023;-89
2023/12/25 10:30:03;;;;;;;3.20;1.20;;;9.40;99.90;;;;;;4955168;28;20110;-88
2023/12/25 10:32:30;;;;;;;1.65;1.08;;;9.40;99.90;;;;;;4954491;28;20613;-89
2023/12/25 10:35:19;;;;;;;1.50;0.90;;;9.40;99.90;;;;;;4972370;28;20026;-90
2023/12/25 10:37:45;;;;;;;1.25;0.95;;;9.40;99.90;;;;;;4961342;28;20019;-86
2023/12/25 10:40:19;;;;;;;0.98;0.90;;;9.50;99.90;;;;;;4956889;28;20125;-91
2023/12/25 10:42:48;;;;;;;0.98;0.93;;;9.50;99.90;;;;;;4981454;28;20117;-89
2023/12/25 10:45:21;;;;;;;2.20;1.35;;;9.50;99.90;;;;;;4966587;28;20042;-91
2023/12/25 10:47:50;;;;;;;3.38;1.40;;;9.50;99.90;;;;;;4959341;28;20027;-86
2023/12/25 10:50:18;;;;;;;2.13;1.13;;;9.50;99.90;;;;;;4977229;28;20023;-93
2023/12/25 10:52:45;;;;;;;3.65;1.10;;;9.60;99.90;;;;;;4956061;28;20305;-92
2023/12/25 10:55:11;;;;;;;1.13;1.02;;;9.60;99.90;;;;;;4956767;28;20507;-90
2023/12/25 10:57:37;;;;;;;2.38;1.40;;;9.70;99.90;;;;;;4956111;28;20034;-90
2023/12/25 11:00:04;;;;;;;1.73;1.30;;;9.60;99.90;;;;;;4959108;28;20039;-90
2023/12/25 11:02:34;;;;;;;2.20;1.00;;;9.60;99.90;;;;;;4964671;28;20026;-91
2023/12/25 11:05:00;;;;;;;1.30;1.05;;;9.60;99.90;;;;;;4958921;28;20037;-92
2023/12/25 11:07:26;;;;;;;1.10;1.00;;;9.60;99.90;;;;;;4964391;28;20113;-92
2023/12/25 11:09:53;;;;;;;3.53;1.35;;;9.60;99.90;;;;;;4967261;28;20023;-92
2023/12/25 11:12:19;;;;;;;1.88;0.80;;;9.60;99.90;;;;;;4959045;28;20405;-93
2023/12/25 11:14:44;;;;;;;1.15;1.00;;;9.70;99.90;;;;;;4964245;28;20030;-92
2023/12/25 11:17:11;;;;;;;1.88;1.08;;;9.60;99.90;;;;;;4964162;28;20050;-93
2023/12/25 11:19:36;;;;;;;1.90;1.25;;;9.60;99.90;;;;;;4968325;28;20106;-93
2023/12/25 11:22:25;;;;;;;1.42;1.00;;;9.70;99.90;;;;;;4958847;28;20113;-93
2023/12/25 11:24:51;;;;;;;1.05;0.95;;;9.80;99.90;;;;;;4958954;28;20018;-92
2023/12/25 11:27:18;;;;;;;1.50;1.13;;;9.80;99.90;;;;;;4969517;28;20023;-92
2023/12/25 11:29:43;;;;;;;1.63;1.30;;;9.90;99.90;;;;;;4961117;28;20022;-87
2023/12/25 11:32:12;;;;;;;1.42;0.85;;;9.90;99.90;;;;;;4976402;28;20081;-88
2023/12/25 11:34:40;;;;;;;1.25;1.00;;;9.90;99.90;;;;;;4956727;28;20081;-89
2023/12/25 11:37:19;;;;;;;1.73;1.10;;;9.90;99.90;;;;;;4956626;28;20022;-87
2023/12/25 11:40:05;;;;;;;2.22;1.00;;;9.90;99.90;;;;;;4965574;28;20499;-90
2023/12/25 11:42:35;;;;;;;1.08;0.93;;;10.00;99.90;;;;;;4966217;28;20023;-90
2023/12/25 11:45:05;;;;;;;2.07;1.30;;;10.10;99.90;;;;;;4954747;28;20031;-88
2023/12/25 11:47:40;;;;;;;2.28;1.02;;;10.10;99.90;;;;;;4960128;28;20054;-88
2023/12/25 11:50:07;;;;;;;1.67;1.10;;;10.10;99.90;;;;;;4956781;28;20023;-89
2023/12/25 11:52:46;;;;;;;1.20;1.08;;;10.10;99.90;;;;;;4957995;28;20031;-89
2023/12/25 11:55:24;;;;;;;2.30;0.90;;;10.10;99.90;;;;;;4970972;28;20082;-90
2023/12/25 11:57:51;;;;;;;0.75;0.73;;;10.10;99.90;;;;;;4954688;28;20023;-85
2023/12/25 12:00:35;;;;;;;2.67;1.10;;;10.00;99.90;;;;;;4957878;28;20031;-86
2023/12/25 12:03:00;;;;;;;3.67;1.08;;;10.60;99.90;;;;;;4956286;28;20384;-88
2023/12/25 12:05:30;;;;;;;4.63;1.40;;;10.90;99.90;;;;;;4960644;28;20031;-88
2023/12/25 12:07:56;;;;;;;2.97;0.95;;;10.50;99.90;;;;;;4950304;29;20586;-88
2023/12/25 12:10:22;;;;;;;3.90;1.35;;;10.10;99.90;;;;;;4955319;28;20118;-85
2023/12/25 12:12:47;;;;;;;1.98;0.90;;;9.80;99.90;;;;;;4956172;28;20055;-88
2023/12/25 12:15:13;;;;;;;1.15;0.80;;;9.70;99.90;;;;;;4954856;28;20436;-88
2023/12/25 12:17:39;;;;;;;2.05;0.80;;;9.60;99.90;;;;;;4958919;28;20106;-87
2023/12/25 12:20:06;;;;;;;2.83;1.20;;;9.60;99.90;;;;;;4959598;28;20023;-87
2023/12/25 12:22:33;;;;;;;1.77;1.00;;;9.60;99.90;;;;;;4956779;28;20043;-88
2023/12/25 12:25:11;;;;;;;1.80;1.00;;;9.50;99.90;;;;;;4956347;28;20033;-87
2023/12/25 12:27:37;;;;;;;1.77;0.98;;;9.50;99.90;;;;;;4967103;28;20022;-85
2023/12/25 12:30:03;;;;;;;1.33;1.10;;;9.40;99.90;;;;;;4960320;28;20069;-87
2023/12/25 12:32:29;;;;;;;2.25;1.20;;;9.40;99.90;;;;;;4972871;28;20168;-87
2023/12/25 12:34:54;;;;;;;1.95;1.17;;;9.40;99.90;;;;;;4979610;28;20520;-87
2023/12/25 12:37:20;;;;;;;4.10;1.20;;;9.40;99.90;;;;;;4962050;28;20126;-87
2023/12/25 12:39:46;;;;;;;0.93;0.93;;;9.40;99.90;;;;;;4959286;28;20110;-87
2023/12/25 12:42:11;;;;;;;1.73;1.05;;;9.40;99.90;;;;;;4973840;28;20125;-87
2023/12/25 12:44:37;;;;;;;1.00;0.90;;;9.40;99.90;;;;;;4954812;28;20026;-87
2023/12/25 12:47:05;;;;;;;2.30;1.23;;;9.40;99.90;;;;;;4955839;28;20019;-86
2023/12/25 12:49:30;;;;;;;2.20;1.00;;;9.30;99.90;;;;;;4972990;28;20022;-87
2023/12/25 12:51:56;;;;;;;2.08;1.35;;;9.40;99.90;;;;;;4955490;28;20030;-87
2023/12/25 12:54:21;;;;;;;1.27;1.05;;;9.30;99.90;;;;;;4966676;28;20031;-87